sensor_id;sensor_type;location;lat;lon;timestamp;noise_LAeq;noise_LA_min;noise_LA_max;noise_LA01;noise_LA95
45651;Laerm;31365;48.858;8.530;2023-07-31T00:02:26;38.80;32.93;43.72;;
45651;Laerm;31365;48.858;8.530;2023-07-31T00:04:56;38.41;31.68;41.82;;
45651;Laerm;31365;48.858;8.530;2023-07-31T00:07:24;39.68;32.93;42.53;;
45651;Laerm;31365;48.858;8.530;2023-07-31T00:09:52;38.37;29.92;41.61;;
45651;Laerm;31365;48.858;8.530;2023-07-31T00:12:21;38.30;31.68;41.68;;
45651;Laerm;31365;48.858;8.530;2023-07-31T00:14:50;38.53;32.35;43.24;;
45651;Laerm;31365;48.858;8.530;2023-07-31T00:17:19;50.68;33.44;68.43;;
45651;Laerm;31365;48.858;8.530;2023-07-31T00:19:47;38.05;29.92;42.22;;
45651;Laerm;31365;48.858;8.530;2023-07-31T00:22:19;51.68;29.57;73.41;;
45651;Laerm;31365;48.858;8.530;2023-07-31T00:24:47;52.46;33.90;72.66;;
45651;Laerm;31365;48.858;8.530;2023-07-31T00:27:15;52.53;31.68;71.11;;
45651;Laerm;31365;48.858;8.530;2023-07-31T00:29:43;54.41;32.93;75.23;;
45651;Laerm;31365;48.858;8.530;2023-07-31T00:32:11;55.34;33.90;74.24;;
45651;Laerm;31365;48.858;8.530;2023-07-31T00:34:39;50.68;32.35;69.82;;
45651;Laerm;31365;48.858;8.530;2023-07-31T00:37:08;39.24;33.90;55.27;;
45651;Laerm;31365;48.858;8.530;2023-07-31T00:39:37;41.28;34.31;46.48;;
45651;Laerm;31365;48.858;8.530;2023-07-31T00:42:06;52.75;37.70;73.73;;
45651;Laerm;31365;48.858;8.530;2023-07-31T00:44:34;39.70;33.44;44.03;;
45651;Laerm;31365;48.858;8.530;2023-07-31T00:47:04;39.38;32.35;43.04;;
45651;Laerm;31365;48.858;8.530;2023-07-31T00:49:32;39.20;33.90;42.98;;
45651;Laerm;31365;48.858;8.530;2023-07-31T00:52:01;39.23;33.44;41.75;;
45651;Laerm;31365;48.858;8.530;2023-07-31T00:54:29;58.76;36.20;81.62;;
45651;Laerm;31365;48.858;8.530;2023-07-31T00:57:01;39.67;32.93;42.65;;
45651;Laerm;31365;48.858;8.530;2023-07-31T00:59:30;39.62;32.93;43.04;;
45651;Laerm;31365;48.858;8.530;2023-07-31T01:01:58;39.88;34.69;43.44;;
45651;Laerm;31365;48.858;8.530;2023-07-31T01:04:27;49.62;35.04;68.51;;
45651;Laerm;31365;48.858;8.530;2023-07-31T01:07:07;39.57;34.69;42.16;;
45651;Laerm;31365;48.858;8.530;2023-07-31T01:09:44;39.47;29.92;42.22;;
45651;Laerm;31365;48.858;8.530;2023-07-31T01:12:18;39.50;34.69;42.09;;
45651;Laerm;31365;48.858;8.530;2023-07-31T01:15:02;39.47;34.31;41.89;;
45651;Laerm;31365;48.858;8.530;2023-07-31T01:17:31;39.57;32.93;45.93;;
45651;Laerm;31365;48.858;8.530;2023-07-31T01:20:04;40.05;34.69;42.88;;
45651;Laerm;31365;48.858;8.530;2023-07-31T01:26:03;39.92;33.90;47.40;;
45651;Laerm;31365;48.858;8.530;2023-07-31T01:28:43;47.99;33.90;68.46;;
45651;Laerm;31365;48.858;8.530;2023-07-31T01:31:20;40.26;34.69;47.26;;
45651;Laerm;31365;48.858;8.530;2023-07-31T01:33:54;39.46;33.90;42.09;;
45651;Laerm;31365;48.858;8.530;2023-07-31T01:36:24;39.58;32.35;42.22;;
45651;Laerm;31365;48.858;8.530;2023-07-31T01:38:57;54.96;33.90;76.65;;
45651;Laerm;31365;48.858;8.530;2023-07-31T01:43:56;40.44;34.69;45.48;;
45651;Laerm;31365;48.858;8.530;2023-07-31T01:46:24;40.84;32.93;44.43;;
45651;Laerm;31365;48.858;8.530;2023-07-31T01:49:06;55.13;32.93;76.36;;
45651;Laerm;31365;48.858;8.530;2023-07-31T01:51:35;39.44;33.09;45.36;;
45651;Laerm;31365;48.858;8.530;2023-07-31T01:54:03;39.65;32.93;46.57;;
45651;Laerm;31365;48.858;8.530;2023-07-31T01:56:33;39.38;32.93;41.75;;
45651;Laerm;31365;48.858;8.530;2023-07-31T01:59:01;50.91;34.31;70.21;;
45651;Laerm;31365;48.858;8.530;2023-07-31T02:01:30;50.44;35.04;68.17;;
45651;Laerm;31365;48.858;8.530;2023-07-31T02:03:59;51.02;33.44;73.27;;
45651;Laerm;31365;48.858;8.530;2023-07-31T02:06:27;40.00;34.69;42.59;;
45651;Laerm;31365;48.858;8.530;2023-07-31T02:08:56;40.79;33.90;58.00;;
45651;Laerm;31365;48.858;8.530;2023-07-31T02:11:24;39.36;33.90;41.82;;
45651;Laerm;31365;48.858;8.530;2023-07-31T02:13:53;51.28;34.31;70.82;;
45651;Laerm;31365;48.858;8.530;2023-07-31T02:16:22;51.59;35.36;71.86;;
45651;Laerm;31365;48.858;8.530;2023-07-31T02:18:50;39.61;34.31;42.41;;
45651;Laerm;31365;48.858;8.530;2023-07-31T02:21:19;55.76;33.44;76.12;;
45651;Laerm;31365;48.858;8.530;2023-07-31T02:23:47;50.72;37.70;69.30;;
45651;Laerm;31365;48.858;8.530;2023-07-31T02:26:15;52.87;35.36;74.47;;
45651;Laerm;31365;48.858;8.530;2023-07-31T02:28:44;39.61;34.31;42.09;;
45651;Laerm;31365;48.858;8.530;2023-07-31T02:31:13;40.35;33.90;42.88;;
45651;Laerm;31365;48.858;8.530;2023-07-31T02:33:42;49.17;35.04;76.00;;
45651;Laerm;31365;48.858;8.530;2023-07-31T02:36:10;54.80;36.45;72.77;;
45651;Laerm;31365;48.858;8.530;2023-07-31T02:38:39;53.63;36.20;76.07;;
45651;Laerm;31365;48.858;8.530;2023-07-31T02:41:07;52.99;36.34;73.70;;
45651;Laerm;31365;48.858;8.530;2023-07-31T02:43:35;41.61;35.04;49.75;;
45651;Laerm;31365;48.858;8.530;2023-07-31T02:46:03;39.83;34.69;42.47;;
45651;Laerm;31365;48.858;8.530;2023-07-31T02:48:33;60.78;34.69;80.20;;
45651;Laerm;31365;48.858;8.530;2023-07-31T02:51:02;50.60;34.31;70.67;;
45651;Laerm;31365;48.858;8.530;2023-07-31T02:53:31;53.40;35.04;73.92;;
45651;Laerm;31365;48.858;8.530;2023-07-31T02:55:59;48.82;36.34;63.71;;
45651;Laerm;31365;48.858;8.530;2023-07-31T03:00:58;58.83;34.69;78.94;;
45651;Laerm;31365;48.858;8.530;2023-07-31T03:03:26;61.26;34.69;78.42;;
45651;Laerm;31365;48.858;8.530;2023-07-31T03:05:56;39.98;35.04;42.76;;
45651;Laerm;31365;48.858;8.530;2023-07-31T03:08:26;51.93;35.04;69.08;;
45651;Laerm;31365;48.858;8.530;2023-07-31T03:10:54;56.98;35.36;76.67;;
45651;Laerm;31365;48.858;8.530;2023-07-31T03:13:22;54.38;35.66;72.61;;
45651;Laerm;31365;48.858;8.530;2023-07-31T03:15:51;57.31;35.66;74.86;;
45651;Laerm;31365;48.858;8.530;2023-07-31T03:18:19;52.71;35.94;75.29;;
45651;Laerm;31365;48.858;8.530;2023-07-31T03:20:48;52.91;35.01;72.55;;
45651;Laerm;31365;48.858;8.530;2023-07-31T03:23:18;57.88;36.45;75.17;;
45651;Laerm;31365;48.858;8.530;2023-07-31T03:25:58;56.21;37.70;72.32;;
45651;Laerm;31365;48.858;8.530;2023-07-31T03:28:29;59.08;36.45;76.44;;
45651;Laerm;31365;48.858;8.530;2023-07-31T03:30:58;58.49;36.69;77.24;;
45651;Laerm;31365;48.858;8.530;2023-07-31T03:33:27;53.02;35.36;70.34;;
45651;Laerm;31365;48.858;8.530;2023-07-31T03:35:56;62.44;39.92;79.35;;
45651;Laerm;31365;48.858;8.530;2023-07-31T03:38:26;61.12;40.33;77.00;;
45651;Laerm;31365;48.858;8.530;2023-07-31T03:40:54;58.54;38.52;76.43;;
45651;Laerm;31365;48.858;8.530;2023-07-31T03:43:22;59.46;37.52;73.35;;
45651;Laerm;31365;48.858;8.530;2023-07-31T03:45:52;57.06;37.88;77.22;;
45651;Laerm;31365;48.858;8.530;2023-07-31T03:48:20;56.55;37.12;76.10;;
45651;Laerm;31365;48.858;8.530;2023-07-31T03:50:49;62.73;38.05;80.02;;
45651;Laerm;31365;48.858;8.530;2023-07-31T03:53:17;61.34;38.37;78.69;;
45651;Laerm;31365;48.858;8.530;2023-07-31T03:55:47;57.07;36.20;75.29;;
45651;Laerm;31365;48.858;8.530;2023-07-31T03:58:15;60.99;38.21;76.94;;
45651;Laerm;31365;48.858;8.530;2023-07-31T04:00:43;61.17;38.37;74.73;;
45651;Laerm;31365;48.858;8.530;2023-07-31T04:03:11;61.53;38.37;78.56;;
45651;Laerm;31365;48.858;8.530;2023-07-31T04:05:40;58.56;39.08;76.72;;
45651;Laerm;31365;48.858;8.530;2023-07-31T04:08:08;60.49;39.46;76.56;;
45651;Laerm;31365;48.858;8.530;2023-07-31T04:10:36;58.75;37.32;73.05;;
45651;Laerm;31365;48.858;8.530;2023-07-31T04:13:05;60.94;39.70;76.75;;
45651;Laerm;31365;48.858;8.530;2023-07-31T04:15:34;61.01;36.91;79.00;;
45651;Laerm;31365;48.858;8.530;2023-07-31T04:18:02;58.81;39.58;76.77;;
45651;Laerm;31365;48.858;8.530;2023-07-31T04:20:31;61.52;39.21;76.77;;
45651;Laerm;31365;48.858;8.530;2023-07-31T04:22:59;58.12;38.95;75.82;;
45651;Laerm;31365;48.858;8.530;2023-07-31T04:25:28;61.63;40.33;78.35;;
45651;Laerm;31365;48.858;8.530;2023-07-31T04:27:56;62.17;36.91;79.71;;
45651;Laerm;31365;48.858;8.530;2023-07-31T04:30:26;64.27;39.81;82.75;;
45651;Laerm;31365;48.858;8.530;2023-07-31T04:32:54;62.62;41.06;77.63;;
45651;Laerm;31365;48.858;8.530;2023-07-31T04:35:22;63.98;40.33;77.27;;
45651;Laerm;31365;48.858;8.530;2023-07-31T04:37:50;58.19;37.88;75.49;;
45651;Laerm;31365;48.858;8.530;2023-07-31T04:40:18;63.59;42.16;76.46;;
45651;Laerm;31365;48.858;8.530;2023-07-31T04:42:46;64.63;42.16;83.12;;
45651;Laerm;31365;48.858;8.530;2023-07-31T04:45:15;62.95;40.23;77.23;;
45651;Laerm;31365;48.858;8.530;2023-07-31T04:47:44;65.49;41.19;80.00;;
45651;Laerm;31365;48.858;8.530;2023-07-31T04:50:13;60.08;39.81;75.65;;
45651;Laerm;31365;48.858;8.530;2023-07-31T04:52:41;62.34;40.80;77.87;;
45651;Laerm;31365;48.858;8.530;2023-07-31T04:55:09;62.57;39.08;77.37;;
45651;Laerm;31365;48.858;8.530;2023-07-31T04:57:37;63.79;43.14;83.53;;
45651;Laerm;31365;48.858;8.530;2023-07-31T05:00:07;59.90;38.52;77.97;;
45651;Laerm;31365;48.858;8.530;2023-07-31T05:02:35;60.78;39.46;76.30;;
45651;Laerm;31365;48.858;8.530;2023-07-31T05:05:05;61.55;40.80;78.01;;
45651;Laerm;31365;48.858;8.530;2023-07-31T05:07:34;61.67;38.95;77.47;;
45651;Laerm;31365;48.858;8.530;2023-07-31T05:10:02;62.98;39.21;79.28;;
45651;Laerm;31365;48.858;8.530;2023-07-31T05:12:30;63.91;42.22;79.18;;
45651;Laerm;31365;48.858;8.530;2023-07-31T05:14:59;63.24;39.34;79.90;;
45651;Laerm;31365;48.858;8.530;2023-07-31T05:17:27;64.58;42.41;77.67;;
45651;Laerm;31365;48.858;8.530;2023-07-31T05:19:55;65.13;41.82;78.25;;
45651;Laerm;31365;48.858;8.530;2023-07-31T05:22:24;65.13;41.82;78.25;;
45651;Laerm;31365;48.858;8.530;2023-07-31T05:24:53;62.99;41.89;78.79;;
45651;Laerm;31365;48.858;8.530;2023-07-31T05:27:22;66.18;41.38;86.80;;
45651;Laerm;31365;48.858;8.530;2023-07-31T05:29:50;65.98;42.88;83.22;;
45651;Laerm;31365;48.858;8.530;2023-07-31T05:32:18;63.22;39.46;79.00;;
45651;Laerm;31365;48.858;8.530;2023-07-31T05:34:46;59.94;41.48;72.59;;
45651;Laerm;31365;48.858;8.530;2023-07-31T05:37:14;63.50;41.30;79.21;;
45651;Laerm;31365;48.858;8.530;2023-07-31T05:39:44;58.23;40.03;73.77;;
45651;Laerm;31365;48.858;8.530;2023-07-31T05:42:13;66.10;43.81;78.82;;
45651;Laerm;31365;48.858;8.530;2023-07-31T05:44:41;63.17;40.03;77.99;;
45651;Laerm;31365;48.858;8.530;2023-07-31T05:47:09;64.47;42.76;79.15;;
45651;Laerm;31365;48.858;8.530;2023-07-31T05:49:37;63.66;42.35;77.89;;
45651;Laerm;31365;48.858;8.530;2023-07-31T05:54:35;65.47;41.53;83.86;;
45651;Laerm;31365;48.858;8.530;2023-07-31T05:57:05;62.04;41.14;76.33;;
45651;Laerm;31365;48.858;8.530;2023-07-31T05:59:34;64.14;41.06;78.74;;
45651;Laerm;31365;48.858;8.530;2023-07-31T06:02:02;62.10;41.30;81.80;;
45651;Laerm;31365;48.858;8.530;2023-07-31T06:04:31;59.44;38.95;76.51;;
45651;Laerm;31365;48.858;8.530;2023-07-31T06:07:00;64.96;43.99;84.72;;
45651;Laerm;31365;48.858;8.530;2023-07-31T06:09:28;61.83;44.35;76.20;;
45651;Laerm;31365;48.858;8.530;2023-07-31T06:11:57;59.92;44.35;74.97;;
45651;Laerm;31365;48.858;8.530;2023-07-31T06:14:27;63.04;44.65;77.63;;
45651;Laerm;31365;48.858;8.530;2023-07-31T06:16:55;61.61;44.19;76.45;;
45651;Laerm;31365;48.858;8.530;2023-07-31T06:19:23;62.57;44.39;76.53;;
45651;Laerm;31365;48.858;8.530;2023-07-31T06:21:51;62.71;45.17;77.60;;
45651;Laerm;31365;48.858;8.530;2023-07-31T06:24:20;64.40;45.33;79.28;;
45651;Laerm;31365;48.858;8.530;2023-07-31T06:26:49;62.65;43.97;82.06;;
45651;Laerm;31365;48.858;8.530;2023-07-31T06:29:17;63.92;45.60;81.37;;
45651;Laerm;31365;48.858;8.530;2023-07-31T06:31:47;63.17;44.19;80.16;;
45651;Laerm;31365;48.858;8.530;2023-07-31T06:34:15;61.43;44.76;79.47;;
45651;Laerm;31365;48.858;8.530;2023-07-31T06:36:43;64.59;45.11;80.85;;
45651;Laerm;31365;48.858;8.530;2023-07-31T06:39:12;61.06;44.11;78.34;;
45651;Laerm;31365;48.858;8.530;2023-07-31T06:41:42;61.77;45.07;75.81;;
45651;Laerm;31365;48.858;8.530;2023-07-31T06:44:11;61.70;44.43;78.28;;
45651;Laerm;31365;48.858;8.530;2023-07-31T06:46:39;63.61;45.34;79.35;;
45651;Laerm;31365;48.858;8.530;2023-07-31T06:49:09;62.06;44.80;81.09;;
45651;Laerm;31365;48.858;8.530;2023-07-31T06:51:37;59.93;43.58;77.03;;
45651;Laerm;31365;48.858;8.530;2023-07-31T06:54:05;62.68;42.59;79.32;;
45651;Laerm;31365;48.858;8.530;2023-07-31T06:56:33;65.09;43.68;83.60;;
45651;Laerm;31365;48.858;8.530;2023-07-31T06:59:04;58.42;39.21;74.29;;
45651;Laerm;31365;48.858;8.530;2023-07-31T07:01:33;61.17;42.82;78.47;;
45651;Laerm;31365;48.858;8.530;2023-07-31T07:04:01;61.45;39.08;78.86;;
45651;Laerm;31365;48.858;8.530;2023-07-31T07:06:31;60.29;39.21;78.56;;
45651;Laerm;31365;48.858;8.530;2023-07-31T07:08:59;61.22;40.13;74.37;;
45651;Laerm;31365;48.858;8.530;2023-07-31T07:11:28;63.02;42.35;77.40;;
45651;Laerm;31365;48.858;8.530;2023-07-31T07:13:56;59.53;39.21;75.40;;
45651;Laerm;31365;48.858;8.530;2023-07-31T07:16:24;63.00;43.05;87.92;;
45651;Laerm;31365;48.858;8.530;2023-07-31T07:18:52;63.62;39.46;82.11;;
45651;Laerm;31365;48.858;8.530;2023-07-31T07:21:32;60.59;39.92;77.65;;
45651;Laerm;31365;48.858;8.530;2023-07-31T07:24:00;63.85;43.68;80.39;;
45651;Laerm;31365;48.858;8.530;2023-07-31T07:26:29;57.68;38.95;74.77;;
45651;Laerm;31365;48.858;8.530;2023-07-31T07:28:57;58.64;38.67;74.77;;
45651;Laerm;31365;48.858;8.530;2023-07-31T07:31:28;61.41;40.13;79.85;;
45651;Laerm;31365;48.858;8.530;2023-07-31T07:33:56;62.42;41.14;77.90;;
45651;Laerm;31365;48.858;8.530;2023-07-31T07:36:27;67.18;43.77;84.19;;
45651;Laerm;31365;48.858;8.530;2023-07-31T07:38:57;61.35;43.09;75.07;;
45651;Laerm;31365;48.858;8.530;2023-07-31T07:41:25;65.27;44.07;80.65;;
45651;Laerm;31365;48.858;8.530;2023-07-31T07:43:53;62.93;44.23;77.57;;
45651;Laerm;31365;48.858;8.530;2023-07-31T07:46:21;62.51;40.89;74.78;;
45651;Laerm;31365;48.858;8.530;2023-07-31T07:48:50;63.69;40.03;82.20;;
45651;Laerm;31365;48.858;8.530;2023-07-31T07:51:18;61.64;40.03;76.49;;
45651;Laerm;31365;48.858;8.530;2023-07-31T07:53:46;62.13;41.46;75.18;;
45651;Laerm;31365;48.858;8.530;2023-07-31T07:56:15;63.84;43.54;78.50;;
45651;Laerm;31365;48.858;8.530;2023-07-31T07:58:44;61.12;43.29;74.03;;
45651;Laerm;31365;48.858;8.530;2023-07-31T08:01:12;61.34;41.82;73.41;;
45651;Laerm;31365;48.858;8.530;2023-07-31T08:03:40;58.22;40.13;73.39;;
45651;Laerm;31365;48.858;8.530;2023-07-31T08:06:09;59.11;39.58;76.85;;
45651;Laerm;31365;48.858;8.530;2023-07-31T08:08:37;58.86;41.68;73.51;;
45651;Laerm;31365;48.858;8.530;2023-07-31T08:11:06;63.47;44.47;79.49;;
45651;Laerm;31365;48.858;8.530;2023-07-31T08:13:36;62.45;43.04;76.25;;
45651;Laerm;31365;48.858;8.530;2023-07-31T08:16:05;63.24;44.51;81.34;;
45651;Laerm;31365;48.858;8.530;2023-07-31T08:18:33;63.35;41.30;82.32;;
45651;Laerm;31365;48.858;8.530;2023-07-31T08:21:02;61.41;43.77;75.31;;
45651;Laerm;31365;48.858;8.530;2023-07-31T08:23:30;61.51;42.65;75.70;;
45651;Laerm;31365;48.858;8.530;2023-07-31T08:25:58;61.56;42.98;73.61;;
45651;Laerm;31365;48.858;8.530;2023-07-31T08:28:27;60.23;42.71;72.97;;
45651;Laerm;31365;48.858;8.530;2023-07-31T08:30:56;64.09;42.88;82.58;;
45651;Laerm;31365;48.858;8.530;2023-07-31T08:33:25;60.21;41.14;74.89;;
45651;Laerm;31365;48.858;8.530;2023-07-31T08:35:53;61.04;40.62;77.60;;
45651;Laerm;31365;48.858;8.530;2023-07-31T08:38:22;61.94;41.61;75.84;;
45651;Laerm;31365;48.858;8.530;2023-07-31T08:40:52;62.40;41.14;77.06;;
45651;Laerm;31365;48.858;8.530;2023-07-31T08:43:25;63.26;40.13;82.38;;
45651;Laerm;31365;48.858;8.530;2023-07-31T08:45:55;60.99;41.14;75.43;;
45651;Laerm;31365;48.858;8.530;2023-07-31T08:48:24;62.67;42.82;76.11;;
45651;Laerm;31365;48.858;8.530;2023-07-31T08:50:53;61.02;42.76;78.88;;
45651;Laerm;31365;48.858;8.530;2023-07-31T08:53:21;59.41;39.21;73.32;;
45651;Laerm;31365;48.858;8.530;2023-07-31T08:55:52;58.30;41.53;75.11;;
45651;Laerm;31365;48.858;8.530;2023-07-31T08:58:21;60.19;39.58;75.31;;
45651;Laerm;31365;48.858;8.530;2023-07-31T09:00:53;61.34;39.58;82.47;;
45651;Laerm;31365;48.858;8.530;2023-07-31T09:03:26;61.05;41.89;77.61;;
45651;Laerm;31365;48.858;8.530;2023-07-31T09:05:57;56.43;39.92;73.59;;
45651;Laerm;31365;48.858;8.530;2023-07-31T09:08:30;64.06;41.61;82.80;;
45651;Laerm;31365;48.858;8.530;2023-07-31T09:11:00;62.17;41.41;75.14;;
45651;Laerm;31365;48.858;8.530;2023-07-31T09:13:32;63.57;41.38;81.32;;
45651;Laerm;31365;48.858;8.530;2023-07-31T09:16:00;57.49;41.96;71.24;;
45651;Laerm;31365;48.858;8.530;2023-07-31T09:18:30;61.27;43.86;75.65;;
45651;Laerm;31365;48.858;8.530;2023-07-31T09:21:02;60.02;42.59;73.42;;
45651;Laerm;31365;48.858;8.530;2023-07-31T09:23:41;62.11;43.90;76.11;;
45651;Laerm;31365;48.858;8.530;2023-07-31T09:26:10;62.58;42.93;75.00;;
45651;Laerm;31365;48.858;8.530;2023-07-31T09:28:38;59.20;39.08;80.36;;
45651;Laerm;31365;48.858;8.530;2023-07-31T09:31:07;59.27;41.30;72.18;;
45651;Laerm;31365;48.858;8.530;2023-07-31T09:33:54;58.56;40.62;76.97;;
45651;Laerm;31365;48.858;8.530;2023-07-31T09:36:23;60.84;42.24;75.28;;
45651;Laerm;31365;48.858;8.530;2023-07-31T09:38:51;59.32;42.16;73.25;;
45651;Laerm;31365;48.858;8.530;2023-07-31T09:41:19;60.24;42.03;74.65;;
45651;Laerm;31365;48.858;8.530;2023-07-31T09:43:53;62.24;42.35;79.95;;
45651;Laerm;31365;48.858;8.530;2023-07-31T09:46:22;61.82;42.16;78.35;;
45651;Laerm;31365;48.858;8.530;2023-07-31T09:48:51;59.14;41.53;76.40;;
45651;Laerm;31365;48.858;8.530;2023-07-31T09:51:26;60.49;41.96;76.53;;
45651;Laerm;31365;48.858;8.530;2023-07-31T09:53:54;59.80;40.53;72.91;;
45651;Laerm;31365;48.858;8.530;2023-07-31T09:56:23;58.99;40.89;72.61;;
45651;Laerm;31365;48.858;8.530;2023-07-31T09:58:54;58.50;40.89;78.73;;
45651;Laerm;31365;48.858;8.530;2023-07-31T10:01:23;64.68;43.68;78.84;;
45651;Laerm;31365;48.858;8.530;2023-07-31T10:03:53;61.63;40.71;76.51;;
45651;Laerm;31365;48.858;8.530;2023-07-31T10:06:21;64.31;41.14;83.04;;
45651;Laerm;31365;48.858;8.530;2023-07-31T10:08:52;60.77;40.98;75.06;;
45651;Laerm;31365;48.858;8.530;2023-07-31T10:11:24;60.05;41.14;74.22;;
45651;Laerm;31365;48.858;8.530;2023-07-31T10:13:54;61.89;39.70;83.29;;
45651;Laerm;31365;48.858;8.530;2023-07-31T10:16:24;58.58;39.70;73.50;;
45651;Laerm;31365;48.858;8.530;2023-07-31T10:18:54;62.59;42.16;78.56;;
45651;Laerm;31365;48.858;8.530;2023-07-31T10:21:22;62.02;40.53;79.20;;
45651;Laerm;31365;48.858;8.530;2023-07-31T10:23:51;60.90;40.03;73.87;;
45651;Laerm;31365;48.858;8.530;2023-07-31T10:26:19;60.97;39.81;78.77;;
45651;Laerm;31365;48.858;8.530;2023-07-31T10:28:53;57.20;39.34;74.08;;
45651;Laerm;31365;48.858;8.530;2023-07-31T10:31:22;61.76;42.16;74.10;;
45651;Laerm;31365;48.858;8.530;2023-07-31T10:33:54;65.12;40.13;81.09;;
45651;Laerm;31365;48.858;8.530;2023-07-31T10:36:23;61.11;40.71;82.03;;
45651;Laerm;31365;48.858;8.530;2023-07-31T10:38:52;58.78;38.95;74.04;;
45651;Laerm;31365;48.858;8.530;2023-07-31T10:41:28;58.00;40.98;77.74;;
45651;Laerm;31365;48.858;8.530;2023-07-31T10:44:01;66.30;43.24;83.28;;
45651;Laerm;31365;48.858;8.530;2023-07-31T10:46:29;60.19;41.68;75.62;;
45651;Laerm;31365;48.858;8.530;2023-07-31T10:49:01;61.23;40.89;76.22;;
45651;Laerm;31365;48.858;8.530;2023-07-31T10:51:34;62.38;42.09;80.64;;
45651;Laerm;31365;48.858;8.530;2023-07-31T10:54:13;62.08;42.22;78.18;;
45651;Laerm;31365;48.858;8.530;2023-07-31T10:56:45;65.72;41.30;86.31;;
45651;Laerm;31365;48.858;8.530;2023-07-31T10:59:14;58.82;40.80;72.53;;
45651;Laerm;31365;48.858;8.530;2023-07-31T11:01:51;66.89;41.14;86.56;;
45651;Laerm;31365;48.858;8.530;2023-07-31T11:04:25;59.81;40.89;77.76;;
45651;Laerm;31365;48.858;8.530;2023-07-31T11:06:58;61.66;40.33;77.83;;
45651;Laerm;31365;48.858;8.530;2023-07-31T11:09:29;60.72;41.30;74.63;;
45651;Laerm;31365;48.858;8.530;2023-07-31T11:11:59;65.27;42.93;79.13;;
45651;Laerm;31365;48.858;8.530;2023-07-31T11:14:28;62.99;44.83;77.23;;
45651;Laerm;31365;48.858;8.530;2023-07-31T11:16:56;60.03;41.30;75.32;;
45651;Laerm;31365;48.858;8.530;2023-07-31T11:19:26;60.39;41.75;76.24;;
45651;Laerm;31365;48.858;8.530;2023-07-31T11:21:56;61.77;41.22;79.86;;
45651;Laerm;31365;48.858;8.530;2023-07-31T11:24:24;62.01;40.71;76.25;;
45651;Laerm;31365;48.858;8.530;2023-07-31T11:26:53;60.28;40.43;82.60;;
45651;Laerm;31365;48.858;8.530;2023-07-31T11:29:27;59.32;40.33;76.81;;
45651;Laerm;31365;48.858;8.530;2023-07-31T11:31:55;55.30;39.58;70.55;;
45651;Laerm;31365;48.858;8.530;2023-07-31T11:34:23;58.32;40.89;79.75;;
45651;Laerm;31365;48.858;8.530;2023-07-31T11:36:56;63.32;40.98;79.50;;
45651;Laerm;31365;48.858;8.530;2023-07-31T11:39:24;62.63;43.19;74.76;;
45651;Laerm;31365;48.858;8.530;2023-07-31T11:41:58;66.14;43.04;80.33;;
45651;Laerm;31365;48.858;8.530;2023-07-31T11:44:38;61.89;42.53;75.24;;
45651;Laerm;31365;48.858;8.530;2023-07-31T11:47:07;62.72;40.89;82.79;;
45651;Laerm;31365;48.858;8.530;2023-07-31T11:49:37;58.81;39.58;76.12;;
45651;Laerm;31365;48.858;8.530;2023-07-31T11:52:07;59.09;40.79;74.62;;
45651;Laerm;31365;48.858;8.530;2023-07-31T11:54:35;61.28;41.30;75.68;;
45651;Laerm;31365;48.858;8.530;2023-07-31T11:57:05;58.23;41.06;71.32;;
45651;Laerm;31365;48.858;8.530;2023-07-31T11:59:34;61.84;43.72;77.34;;
45651;Laerm;31365;48.858;8.530;2023-07-31T12:02:03;62.35;42.59;78.41;;
45651;Laerm;31365;48.858;8.530;2023-07-31T12:04:32;62.26;41.53;76.50;;
45651;Laerm;31365;48.858;8.530;2023-07-31T12:07:00;63.98;47.22;80.77;;
45651;Laerm;31365;48.858;8.530;2023-07-31T12:11:58;61.71;41.61;75.87;;
45651;Laerm;31365;48.858;8.530;2023-07-31T12:14:27;62.89;44.66;77.72;;
45651;Laerm;31365;48.858;8.530;2023-07-31T12:16:58;59.26;42.93;74.28;;
45651;Laerm;31365;48.858;8.530;2023-07-31T12:19:27;63.21;41.82;79.43;;
45651;Laerm;31365;48.858;8.530;2023-07-31T12:21:59;59.75;43.19;75.01;;
45651;Laerm;31365;48.858;8.530;2023-07-31T12:24:27;59.71;43.14;71.72;;
45651;Laerm;31365;48.858;8.530;2023-07-31T12:26:57;58.74;41.53;74.73;;
45651;Laerm;31365;48.858;8.530;2023-07-31T12:29:34;57.70;41.06;74.06;;
45651;Laerm;31365;48.858;8.530;2023-07-31T12:32:20;57.70;41.06;74.06;;
45651;Laerm;31365;48.858;8.530;2023-07-31T12:34:48;58.57;37.32;76.52;;
45651;Laerm;31365;48.858;8.530;2023-07-31T12:37:17;55.85;39.57;70.11;;
45651;Laerm;31365;48.858;8.530;2023-07-31T12:39:45;58.74;41.82;72.41;;
45651;Laerm;31365;48.858;8.530;2023-07-31T12:42:17;60.09;39.92;76.07;;
45651;Laerm;31365;48.858;8.530;2023-07-31T12:44:45;58.36;40.98;75.75;;
45651;Laerm;31365;48.858;8.530;2023-07-31T12:47:13;58.76;40.62;73.22;;
45651;Laerm;31365;48.858;8.530;2023-07-31T12:49:42;60.29;41.06;78.76;;
45651;Laerm;31365;48.858;8.530;2023-07-31T12:52:10;60.03;42.59;73.11;;
45651;Laerm;31365;48.858;8.530;2023-07-31T12:54:38;58.15;41.46;76.40;;
45651;Laerm;31365;48.858;8.530;2023-07-31T12:57:06;60.42;43.63;78.52;;
45651;Laerm;31365;48.858;8.530;2023-07-31T12:59:36;59.36;41.53;75.10;;
45651;Laerm;31365;48.858;8.530;2023-07-31T13:02:05;58.02;38.37;71.29;;
45651;Laerm;31365;48.858;8.530;2023-07-31T13:04:33;65.48;42.85;85.23;;
45651;Laerm;31365;48.858;8.530;2023-07-31T13:07:01;62.21;41.30;76.90;;
45651;Laerm;31365;48.858;8.530;2023-07-31T13:11:58;64.69;44.69;82.42;;
45651;Laerm;31365;48.858;8.530;2023-07-31T13:14:27;58.83;41.96;69.55;;
45651;Laerm;31365;48.858;8.530;2023-07-31T13:16:57;63.29;42.47;75.70;;
45651;Laerm;31365;48.858;8.530;2023-07-31T13:19:25;67.06;41.61;83.23;;
45651;Laerm;31365;48.858;8.530;2023-07-31T13:21:53;57.91;39.81;76.97;;
45651;Laerm;31365;48.858;8.530;2023-07-31T13:24:22;61.94;41.96;79.32;;
45651;Laerm;31365;48.858;8.530;2023-07-31T13:26:50;60.31;38.95;78.61;;
45651;Laerm;31365;48.858;8.530;2023-07-31T13:29:18;62.86;42.41;76.40;;
45651;Laerm;31365;48.858;8.530;2023-07-31T13:31:48;59.38;39.46;74.58;;
45651;Laerm;31365;48.858;8.530;2023-07-31T13:34:18;60.76;41.06;76.19;;
45651;Laerm;31365;48.858;8.530;2023-07-31T13:36:46;61.14;42.53;73.75;;
45651;Laerm;31365;48.858;8.530;2023-07-31T13:39:14;62.64;43.54;78.89;;
45651;Laerm;31365;48.858;8.530;2023-07-31T13:41:42;62.16;43.39;78.76;;
45651;Laerm;31365;48.858;8.530;2023-07-31T13:44:11;61.92;38.67;75.48;;
45651;Laerm;31365;48.858;8.530;2023-07-31T13:46:39;58.60;41.68;71.56;;
45651;Laerm;31365;48.858;8.530;2023-07-31T13:49:08;60.87;43.04;73.92;;
45651;Laerm;31365;48.858;8.530;2023-07-31T13:51:37;63.69;42.88;77.93;;
45651;Laerm;31365;48.858;8.530;2023-07-31T13:54:06;63.01;43.72;75.79;;
45651;Laerm;31365;48.858;8.530;2023-07-31T13:56:34;63.23;43.49;78.38;;
45651;Laerm;31365;48.858;8.530;2023-07-31T13:59:03;64.60;43.04;81.76;;
45651;Laerm;31365;48.858;8.530;2023-07-31T14:01:31;61.93;43.24;74.57;;
45651;Laerm;31365;48.858;8.530;2023-07-31T14:03:59;63.27;40.80;77.82;;
45651;Laerm;31365;48.858;8.530;2023-07-31T14:06:27;67.38;41.38;83.31;;
45651;Laerm;31365;48.858;8.530;2023-07-31T14:08:57;66.81;44.11;89.14;;
45651;Laerm;31365;48.858;8.530;2023-07-31T14:11:26;61.35;40.53;76.35;;
45651;Laerm;31365;48.858;8.530;2023-07-31T14:13:55;59.16;40.89;75.79;;